21°C Temp
17°C Dewpoint
% Humidity
Temperature
13 KM/H
8 MPH
7 KTS
40°
North East

Wind Speed
Clear
Conditions
Pressure 1021.92 (hPa) - 30.18 (in)
Visibility 6.2 (mi) - 10.0 (km)

Current Conditions
YWLM
Location 18(km)
Metar :YWLM 211200Z AUTO 04007KT 9999 // NCD 21/17 Q1022
Sun 21st April 23:00 pm

Airport
  Metar Aviation API Data Provided by https://www.checkwx.com/ PHP scripts by weather34.com ©2019